Saunderstown, Rhode Island
Current Conditions -  °F | °C
As of 3:53 AM on Monday 20 Oct 2014 (Local Time) from KUUU Reporting Station
Clear Clear  
Wind Chill: 36°   Ceiling: Unl
Heat Index: 41°   Visibility: 10mi
Dew Point: 28°   Wind: 8mph
Humidity: 60%   Direction: 320°NW
Pressure: 30.02"   Gusts: NA
Location:  41.51°N, 71.42°W
Report Text: KUUU 200753Z AUTO 32007KT 10SM CLR 05/M02 A3002 RMK AO2 SLP164 T00501022
Loading
Personal Weather Stations






























Interactive Weather Map
Tropical Storm Tracking
New forecast layout! Learn more

10-Day Weather Forecast

Advertisements
Track Severe Weather on mobile